createdAt,value
2017-11-07T00:00:33.434Z,3.23
2017-11-07T00:01:33.428Z,3.21
2017-11-07T00:02:33.406Z,3.18
2017-11-07T00:03:33.718Z,3.26
2017-11-07T00:04:33.377Z,3.35
2017-11-07T00:05:33.685Z,3.26
2017-11-07T00:06:33.352Z,3.4
2017-11-07T00:07:33.664Z,3.31
2017-11-07T00:08:33.660Z,3.43
2017-11-07T00:09:33.630Z,3.24
2017-11-07T00:10:33.637Z,3.32
2017-11-07T00:11:33.279Z,3.31
2017-11-07T00:12:33.602Z,3.4
2017-11-07T00:13:33.573Z,3.36
2017-11-07T00:14:33.576Z,3.35
2017-11-07T00:15:33.568Z,3.42
2017-11-07T00:16:33.547Z,3.39
2017-11-07T00:17:33.526Z,3.36
2017-11-07T00:18:33.513Z,3.32
2017-11-07T00:19:33.494Z,3.42
2017-11-07T00:20:33.491Z,3.4
2017-11-07T00:21:33.482Z,3.36
2017-11-07T00:22:33.477Z,3.42
2017-11-07T00:23:33.435Z,3.5
2017-11-07T00:24:33.116Z,3.43
2017-11-07T00:25:33.086Z,3.51
2017-11-07T00:26:33.411Z,3.52
2017-11-07T00:27:33.385Z,3.52
2017-11-07T00:28:33.365Z,3.48
2017-11-07T00:29:32.713Z,3.55
2017-11-07T00:30:33.340Z,3.55
2017-11-07T00:31:33.323Z,3.55
2017-11-07T00:32:33.329Z,3.58
2017-11-07T00:33:32.978Z,3.54
2017-11-07T00:34:33.304Z,3.58
2017-11-07T00:35:33.269Z,3.6
2017-11-07T00:36:33.284Z,3.54
2017-11-07T00:37:33.264Z,3.58
2017-11-07T00:38:33.227Z,3.61
2017-11-07T00:39:33.218Z,3.5
2017-11-07T00:40:33.196Z,3.6
2017-11-07T00:41:33.182Z,3.6
2017-11-07T00:42:33.167Z,3.52
2017-11-07T00:43:32.842Z,3.48
2017-11-07T00:44:32.829Z,3.52
2017-11-07T00:45:33.135Z,3.55
2017-11-07T00:46:33.120Z,3.48
2017-11-07T00:47:33.110Z,3.6
2017-11-07T00:48:33.128Z,3.58
2017-11-07T00:49:33.074Z,3.58
2017-11-07T00:50:33.062Z,3.48
2017-11-07T00:51:33.042Z,3.54
2017-11-07T00:52:33.034Z,3.43
2017-11-07T00:53:33.048Z,3.45
2017-11-07T00:54:33.013Z,3.5
2017-11-07T00:55:32.998Z,3.36
2017-11-07T00:56:32.979Z,3.4
2017-11-07T00:57:32.968Z,3.33
2017-11-07T00:58:32.947Z,3.32
2017-11-07T00:59:32.933Z,3.36
2017-11-07T01:00:32.926Z,3.36
2017-11-07T01:01:32.920Z,3.32
2017-11-07T01:02:32.913Z,3.31
2017-11-07T01:03:32.894Z,3.29
2017-11-07T01:04:32.545Z,3.28
2017-11-07T01:05:32.855Z,3.31
2017-11-07T01:06:32.843Z,3.33
2017-11-07T01:07:32.829Z,3.29
2017-11-07T01:08:32.808Z,3.42
2017-11-07T01:09:32.799Z,3.35
2017-11-07T01:10:32.782Z,3.31
2017-11-07T01:11:32.783Z,3.39
2017-11-07T01:12:32.765Z,3.39
2017-11-07T01:13:32.741Z,3.45
2017-11-07T01:14:32.734Z,3.43
2017-11-07T01:15:32.714Z,3.33
2017-11-07T01:16:32.378Z,3.36
2017-11-07T01:17:32.692Z,3.48
2017-11-07T01:18:32.669Z,3.48
2017-11-07T01:19:32.663Z,3.5
2017-11-07T01:20:32.647Z,3.54
2017-11-07T01:21:32.630Z,3.52
2017-11-07T01:22:32.616Z,3.62
2017-11-07T01:23:32.285Z,3.68
2017-11-07T01:24:32.264Z,3.65
2017-11-07T01:25:32.572Z,3.76
2017-11-07T01:26:32.569Z,3.76
2017-11-07T01:27:31.905Z,3.75
2017-11-07T01:28:32.532Z,3.72
2017-11-07T01:29:32.200Z,3.96
2017-11-07T01:30:32.178Z,4.05
2017-11-07T01:31:32.490Z,3.87
2017-11-07T01:32:31.829Z,4.04
2017-11-07T01:33:32.481Z,4.05
2017-11-07T01:34:32.455Z,3.98
2017-11-07T01:35:32.115Z,3.98
2017-11-07T01:36:32.421Z,4.12
2017-11-07T01:37:32.416Z,4.08
2017-11-07T01:38:32.392Z,4.09
2017-11-07T01:39:32.397Z,4.05
2017-11-07T01:40:32.051Z,4.08
2017-11-07T01:41:32.031Z,4.18
2017-11-07T01:42:32.013Z,4.15
2017-11-07T01:43:32.004Z,4.29
2017-11-07T01:44:32.313Z,4.27
2017-11-07T01:45:32.301Z,4.24
2017-11-07T01:46:32.289Z,4.26
2017-11-07T01:47:31.627Z,4.27
2017-11-07T01:48:32.261Z,4.27
2017-11-07T01:49:32.246Z,4.33
2017-11-07T01:50:31.915Z,4.3
2017-11-07T01:51:31.896Z,4.37
2017-11-07T01:52:32.205Z,4.33
2017-11-07T01:53:31.866Z,4.24
2017-11-07T01:54:32.179Z,4.24
2017-11-07T01:55:31.843Z,4.27
2017-11-07T01:56:31.829Z,4.33
2017-11-07T01:57:32.134Z,4.29
2017-11-07T01:58:32.128Z,4.29
2017-11-07T01:59:32.117Z,4.29
2017-11-07T02:00:31.771Z,4.24
2017-11-07T02:01:31.761Z,4.3
2017-11-07T02:02:31.747Z,4.3
2017-11-07T02:03:32.067Z,4.34
2017-11-07T02:04:32.048Z,4.32
2017-11-07T02:05:31.709Z,4.4
2017-11-07T02:06:31.701Z,4.33
2017-11-07T02:07:31.679Z,4.29
2017-11-07T02:08:31.669Z,4.32
2017-11-07T02:09:31.986Z,4.29
2017-11-07T02:10:31.961Z,4.3
2017-11-07T02:11:31.956Z,4.32
2017-11-07T02:12:31.936Z,4.34
2017-11-07T02:13:31.925Z,4.32
2017-11-07T02:14:31.910Z,4.33
2017-11-07T02:15:31.568Z,4.4
2017-11-07T02:16:31.883Z,4.4
2017-11-07T02:17:31.558Z,4.36
2017-11-07T02:18:31.546Z,4.41
2017-11-07T02:19:31.841Z,4.36
2017-11-07T02:20:31.825Z,4.36
2017-11-07T02:21:31.494Z,4.51
2017-11-07T02:22:31.810Z,4.36
2017-11-07T02:23:31.479Z,4.51
2017-11-07T02:24:31.782Z,4.5
2017-11-07T02:25:31.769Z,4.36
2017-11-07T02:26:31.425Z,4.41
2017-11-07T02:27:31.734Z,4.4
2017-11-07T02:28:31.725Z,4.5
2017-11-07T02:29:31.724Z,4.5
2017-11-07T02:30:31.693Z,4.51
2017-11-07T02:31:31.685Z,4.47
2017-11-07T02:32:31.354Z,4.48
2017-11-07T02:33:31.654Z,4.48
2017-11-07T02:34:31.644Z,4.5
2017-11-07T02:35:31.631Z,4.54
2017-11-07T02:36:31.294Z,4.52
2017-11-07T02:37:31.607Z,4.5
2017-11-07T02:38:31.605Z,4.5
2017-11-07T02:39:31.580Z,4.51
2017-11-07T02:40:31.596Z,4.5
2017-11-07T02:41:31.234Z,4.34
2017-11-07T02:42:31.536Z,4.41
2017-11-07T02:43:31.535Z,4.33
2017-11-07T02:44:31.510Z,4.29
2017-11-07T02:45:31.525Z,4.16
2017-11-07T02:46:31.484Z,4.14
2017-11-07T02:47:31.479Z,4.12
2017-11-07T02:48:31.452Z,4.2
2017-11-07T02:49:31.447Z,4.12
2017-11-07T02:50:31.442Z,4.12
2017-11-07T02:51:31.100Z,4.05
2017-11-07T02:52:31.402Z,4.06
2017-11-07T02:53:31.394Z,4.02
2017-11-07T02:54:31.385Z,4.04
2017-11-07T02:55:31.359Z,3.93
2017-11-07T02:56:31.353Z,3.96
2017-11-07T02:57:31.339Z,3.86
2017-11-07T02:58:31.325Z,3.87
2017-11-07T02:59:31.312Z,3.83
2017-11-07T03:00:31.299Z,3.73
2017-11-07T03:01:31.279Z,3.8
2017-11-07T03:02:31.277Z,3.86
2017-11-07T03:03:31.258Z,3.8
2017-11-07T03:04:30.917Z,3.76
2017-11-07T03:05:30.580Z,3.73
2017-11-07T03:06:30.890Z,3.72
2017-11-07T03:07:31.197Z,3.61
2017-11-07T03:08:31.191Z,3.69
2017-11-07T03:09:31.170Z,3.68
2017-11-07T03:10:30.841Z,3.65
2017-11-07T03:11:31.144Z,3.61
2017-11-07T03:12:31.126Z,3.69
2017-11-07T03:13:30.794Z,3.66
2017-11-07T03:14:31.113Z,3.66
2017-11-07T03:15:31.087Z,3.57
2017-11-07T03:16:30.758Z,3.61
2017-11-07T03:17:31.070Z,3.69
2017-11-07T03:18:30.724Z,3.62
2017-11-07T03:19:31.046Z,3.65
2017-11-07T03:20:31.041Z,3.6
2017-11-07T03:21:30.684Z,3.57
2017-11-07T03:22:30.995Z,3.65
2017-11-07T03:23:30.656Z,3.6
2017-11-07T03:24:30.965Z,3.57
2017-11-07T03:25:30.950Z,3.66
2017-11-07T03:26:30.614Z,3.58
2017-11-07T03:27:30.609Z,3.57
2017-11-07T03:28:30.908Z,3.52
2017-11-07T03:29:30.901Z,3.58
2017-11-07T03:30:30.890Z,3.54
2017-11-07T03:31:30.873Z,3.61
2017-11-07T03:32:30.860Z,3.65
2017-11-07T03:33:30.840Z,3.58
2017-11-07T03:34:30.181Z,3.68
2017-11-07T03:35:30.815Z,3.72
2017-11-07T03:36:30.476Z,3.66
2017-11-07T03:37:30.784Z,3.73
2017-11-07T03:38:30.777Z,3.73
2017-11-07T03:39:30.438Z,3.69
2017-11-07T03:40:30.756Z,3.78
2017-11-07T03:41:30.410Z,3.75
2017-11-07T03:42:30.397Z,3.73
2017-11-07T03:43:30.701Z,3.84
2017-11-07T03:44:30.690Z,3.78
2017-11-07T03:45:30.686Z,3.91
2017-11-07T03:46:30.668Z,3.72
2017-11-07T03:47:30.649Z,3.84
2017-11-07T03:48:30.310Z,3.75
2017-11-07T03:49:29.976Z,3.83
2017-11-07T03:50:30.609Z,3.76
2017-11-07T03:51:29.949Z,3.75
2017-11-07T03:52:30.580Z,3.66
2017-11-07T03:53:30.571Z,3.69
2017-11-07T03:54:30.230Z,3.61
2017-11-07T03:55:30.552Z,3.68
2017-11-07T03:56:30.204Z,3.65
2017-11-07T03:57:30.191Z,3.62
2017-11-07T03:58:29.854Z,3.6
2017-11-07T03:59:30.485Z,3.6
2017-11-07T04:00:30.148Z,3.65
2017-11-07T04:01:30.465Z,3.69
2017-11-07T04:02:29.797Z,3.69
2017-11-07T04:03:30.433Z,3.69
2017-11-07T04:04:30.416Z,3.65
2017-11-07T04:05:30.415Z,3.66
2017-11-07T04:06:30.387Z,3.7
2017-11-07T04:07:30.374Z,3.73
2017-11-07T04:08:30.400Z,3.72
2017-11-07T04:09:30.348Z,3.66
2017-11-07T04:10:30.349Z,3.61
2017-11-07T04:11:30.017Z,3.7
2017-11-07T04:12:30.305Z,3.73
2017-11-07T04:13:30.296Z,3.65
2017-11-07T04:14:30.291Z,3.65
2017-11-07T04:15:30.264Z,3.7
2017-11-07T04:16:30.253Z,3.69
2017-11-07T04:17:30.242Z,3.69
2017-11-07T04:18:30.223Z,3.72
2017-11-07T04:19:30.209Z,3.75
2017-11-07T04:20:30.198Z,3.72
2017-11-07T04:21:30.182Z,3.75
2017-11-07T04:22:30.169Z,3.65
2017-11-07T04:23:29.834Z,3.65
2017-11-07T04:24:30.137Z,3.69
2017-11-07T04:25:30.129Z,3.66
2017-11-07T04:26:30.117Z,3.66
2017-11-07T04:27:30.099Z,3.7
2017-11-07T04:28:30.079Z,3.7
2017-11-07T04:29:30.073Z,3.78
2017-11-07T04:30:29.737Z,3.65
2017-11-07T04:31:29.717Z,3.61
2017-11-07T04:32:30.029Z,3.72
2017-11-07T04:33:29.696Z,3.72
2017-11-07T04:34:29.678Z,3.66
2017-11-07T04:35:29.987Z,3.6
2017-11-07T04:36:29.976Z,3.62
2017-11-07T04:37:29.970Z,3.55
2017-11-07T04:38:29.948Z,3.58
2017-11-07T04:39:29.618Z,3.6
2017-11-07T04:40:29.916Z,3.55
2017-11-07T04:41:29.918Z,3.65
2017-11-07T04:42:29.892Z,3.61
2017-11-07T04:43:29.888Z,3.55
2017-11-07T04:44:29.864Z,3.61
2017-11-07T04:45:29.850Z,3.43
2017-11-07T04:46:29.833Z,3.42
2017-11-07T04:47:29.821Z,3.35
2017-11-07T04:48:29.817Z,3.32
2017-11-07T04:49:29.796Z,3.32
2017-11-07T04:50:29.779Z,3.32
2017-11-07T04:51:29.769Z,3.29
2017-11-07T04:52:29.429Z,3.26
2017-11-07T04:53:29.754Z,3.18
2017-11-07T04:54:29.729Z,3.28
2017-11-07T04:55:29.712Z,3.2
2017-11-07T04:56:29.701Z,3.2
2017-11-07T04:57:29.687Z,3.08
2017-11-07T04:58:29.671Z,3.08
2017-11-07T04:59:29.653Z,3.03
2017-11-07T05:00:29.317Z,3.18
2017-11-07T05:01:29.625Z,3.2
2017-11-07T05:02:29.612Z,3.24
2017-11-07T05:03:29.608Z,3.26
2017-11-07T05:04:29.267Z,3.23
2017-11-07T05:05:29.574Z,3.29
2017-11-07T05:06:29.575Z,3.36
2017-11-07T05:07:29.554Z,3.4
2017-11-07T05:08:29.536Z,3.36
2017-11-07T05:09:29.513Z,3.28
2017-11-07T05:10:29.499Z,3.24
2017-11-07T05:11:29.508Z,3.32
2017-11-07T05:12:29.478Z,3.33
2017-11-07T05:13:29.464Z,3.36
2017-11-07T05:14:29.123Z,3.39
2017-11-07T05:15:29.433Z,3.28
2017-11-07T05:16:29.420Z,3.23
2017-11-07T05:17:29.406Z,3.23
2017-11-07T05:18:29.393Z,3.23
2017-11-07T05:19:29.052Z,3.18
2017-11-07T05:20:29.363Z,3.08
2017-11-07T05:21:29.346Z,3.11
2017-11-07T05:22:29.343Z,3.11
2017-11-07T05:23:28.994Z,3.06
2017-11-07T05:24:28.985Z,3.06
2017-11-07T05:25:29.291Z,3.13
2017-11-07T05:26:29.274Z,3.14
2017-11-07T05:27:29.263Z,3.1
2017-11-07T05:28:29.250Z,3.06
2017-11-07T05:29:29.237Z,3
2017-11-07T05:30:28.898Z,2.92
2017-11-07T05:31:29.204Z,2.99
2017-11-07T05:32:29.197Z,2.92
2017-11-07T05:33:29.180Z,2.92
2017-11-07T05:34:28.839Z,2.93
2017-11-07T05:35:29.152Z,2.92
2017-11-07T05:36:29.131Z,2.93
2017-11-07T05:37:29.122Z,3.06
2017-11-07T05:38:29.114Z,3.14
2017-11-07T05:39:29.093Z,3.13
2017-11-07T05:40:29.081Z,3.13
2017-11-07T05:41:29.067Z,3.23
2017-11-07T05:42:29.049Z,3.29
2017-11-07T05:43:29.035Z,3.24
2017-11-07T05:44:29.033Z,3.28
2017-11-07T05:45:29.010Z,3.28
2017-11-07T05:46:28.995Z,3.26
2017-11-07T05:47:28.974Z,3.29
2017-11-07T05:48:28.977Z,3.32
2017-11-07T05:49:28.962Z,3.31
2017-11-07T05:50:28.945Z,3.36
2017-11-07T05:51:28.929Z,3.42
2017-11-07T05:52:28.906Z,3.33
2017-11-07T05:53:28.919Z,3.36
2017-11-07T05:54:28.898Z,3.32
2017-11-07T05:55:28.872Z,3.5
2017-11-07T05:56:28.855Z,3.43
2017-11-07T05:57:28.515Z,3.6
2017-11-07T05:58:28.823Z,3.52
2017-11-07T05:59:28.810Z,3.51
2017-11-07T06:00:28.799Z,3.48
2017-11-07T06:01:28.781Z,3.6
2017-11-07T06:02:28.771Z,3.6
2017-11-07T06:03:28.430Z,3.54
2017-11-07T06:04:28.759Z,3.54
2017-11-07T06:05:28.729Z,3.6
2017-11-07T06:06:28.717Z,3.54
2017-11-07T06:07:28.704Z,3.58
2017-11-07T06:08:28.367Z,3.52
2017-11-07T06:09:28.366Z,3.61
2017-11-07T06:10:28.654Z,3.68
2017-11-07T06:11:28.323Z,3.62
2017-11-07T06:12:28.640Z,3.69
2017-11-07T06:13:28.614Z,3.7
2017-11-07T06:14:28.278Z,3.66
2017-11-07T06:15:28.589Z,3.68
2017-11-07T06:16:28.262Z,3.72
2017-11-07T06:17:28.564Z,3.75
2017-11-07T06:18:28.224Z,3.73
2017-11-07T06:19:28.531Z,3.84
2017-11-07T06:20:28.530Z,3.79
2017-11-07T06:21:28.512Z,3.75
2017-11-07T06:22:28.165Z,3.8
2017-11-07T06:23:28.476Z,3.72
2017-11-07T06:24:28.461Z,3.84
2017-11-07T06:25:28.482Z,3.93
2017-11-07T06:26:28.465Z,3.9
2017-11-07T06:27:28.417Z,3.87
2017-11-07T06:28:28.407Z,3.88
2017-11-07T06:29:28.406Z,3.91
2017-11-07T06:30:28.057Z,3.93
2017-11-07T06:31:28.363Z,3.97
2017-11-07T06:32:28.030Z,3.98
2017-11-07T06:33:28.342Z,3.94
2017-11-07T06:34:28.328Z,3.91
2017-11-07T06:35:28.330Z,3.93
2017-11-07T06:36:27.974Z,3.91
2017-11-07T06:37:27.967Z,3.94
2017-11-07T06:38:28.279Z,3.9
2017-11-07T06:39:28.254Z,3.91
2017-11-07T06:40:28.240Z,3.94
2017-11-07T06:41:28.225Z,3.96
2017-11-07T06:42:28.234Z,4.06
2017-11-07T06:43:28.205Z,4
2017-11-07T06:44:27.876Z,4.02
2017-11-07T06:45:28.181Z,4.11
2017-11-07T06:46:28.164Z,4.12
2017-11-07T06:47:27.829Z,4.2
2017-11-07T06:48:28.135Z,4.04
2017-11-07T06:49:28.125Z,4.2
2017-11-07T06:50:28.102Z,4.2
2017-11-07T06:51:28.096Z,4.26
2017-11-07T06:52:27.755Z,4.18
2017-11-07T06:53:28.064Z,4.18
2017-11-07T06:54:28.053Z,4.05
2017-11-07T06:55:28.043Z,4.11
2017-11-07T06:56:28.034Z,4.09
2017-11-07T06:57:28.036Z,4.04
2017-11-07T06:58:28.000Z,4.02
2017-11-07T06:59:27.660Z,4
2017-11-07T07:00:27.990Z,3.98
2017-11-07T07:01:27.976Z,4
2017-11-07T07:02:27.947Z,3.98
2017-11-07T07:03:27.938Z,4.05
2017-11-07T07:04:27.592Z,4.12
2017-11-07T07:05:27.911Z,3.98
2017-11-07T07:06:27.912Z,3.96
2017-11-07T07:07:27.556Z,3.97
2017-11-07T07:08:27.870Z,3.94
2017-11-07T07:09:27.852Z,4.02
2017-11-07T07:10:27.860Z,3.9
2017-11-07T07:11:27.510Z,3.88
2017-11-07T07:12:27.813Z,3.93
2017-11-07T07:13:27.831Z,4.09
2017-11-07T07:14:27.794Z,4.11
2017-11-07T07:15:27.447Z,4.11
2017-11-07T07:16:27.435Z,4.11
2017-11-07T07:17:27.749Z,4.14
2017-11-07T07:18:27.415Z,4.14
2017-11-07T07:19:27.723Z,4.14
2017-11-07T07:20:27.714Z,4.16
2017-11-07T07:21:27.702Z,4.26
2017-11-07T07:22:27.930Z,4.29
2017-11-07T07:23:27.663Z,4.24
2017-11-07T07:24:27.649Z,4.26
2017-11-07T07:25:27.639Z,4.24
2017-11-07T07:26:27.629Z,4.3
2017-11-07T07:27:27.613Z,4.36
2017-11-07T07:28:27.604Z,4.45
2017-11-07T07:29:27.587Z,4.41
2017-11-07T07:30:27.251Z,4.41
2017-11-07T07:31:27.562Z,4.41
2017-11-07T07:32:27.225Z,4.51
2017-11-07T07:33:27.213Z,4.47
2017-11-07T07:34:27.212Z,4.51
2017-11-07T07:35:27.514Z,4.5
2017-11-07T07:36:27.503Z,4.54
2017-11-07T07:37:27.479Z,4.7
2017-11-07T07:38:27.482Z,4.62
2017-11-07T07:39:27.135Z,4.73
2017-11-07T07:40:27.445Z,4.75
2017-11-07T07:41:27.431Z,4.66
2017-11-07T07:42:27.430Z,4.67
2017-11-07T07:43:27.410Z,4.69
2017-11-07T07:44:27.396Z,4.77
2017-11-07T07:45:27.058Z,4.82
2017-11-07T07:46:27.370Z,4.88
2017-11-07T07:47:27.354Z,4.82
2017-11-07T07:48:27.039Z,4.84
2017-11-07T07:49:27.331Z,4.89
2017-11-07T07:50:26.997Z,4.91
2017-11-07T07:51:27.309Z,4.89
2017-11-07T07:52:27.296Z,4.85
2017-11-07T07:53:27.289Z,4.8
2017-11-07T07:54:27.270Z,4.89
2017-11-07T07:55:27.277Z,4.89
2017-11-07T07:56:26.921Z,4.97
2017-11-07T07:57:26.914Z,4.99
2017-11-07T07:58:27.260Z,5.04
2017-11-07T07:59:26.885Z,5.06
2017-11-07T08:00:26.873Z,5.2
2017-11-07T08:01:26.870Z,5.22
2017-11-07T08:02:26.852Z,5.27
2017-11-07T08:03:27.174Z,5.39
2017-11-07T08:04:26.821Z,5.45
2017-11-07T08:05:26.812Z,5.42
2017-11-07T08:06:27.119Z,5.58
2017-11-07T08:07:27.115Z,5.46
2017-11-07T08:08:26.780Z,5.56
2017-11-07T08:09:26.766Z,5.48
2017-11-07T08:10:27.079Z,5.45
2017-11-07T08:11:26.759Z,5.53
2017-11-07T08:12:26.748Z,5.63
2017-11-07T08:13:27.039Z,5.64
2017-11-07T08:14:27.036Z,5.65
2017-11-07T08:15:27.017Z,5.65
2017-11-07T08:16:27.011Z,5.64
2017-11-07T08:17:26.985Z,5.65
2017-11-07T08:18:26.978Z,5.72
2017-11-07T08:19:26.973Z,5.76
2017-11-07T08:20:26.954Z,5.76
2017-11-07T08:21:26.937Z,5.63
2017-11-07T08:22:26.940Z,5.75
2017-11-07T08:23:26.949Z,5.71
2017-11-07T08:24:26.943Z,5.68
2017-11-07T08:25:26.892Z,5.64
2017-11-07T08:26:26.880Z,5.71
2017-11-07T08:27:26.888Z,5.74
2017-11-07T08:28:26.874Z,5.67
2017-11-07T08:29:26.879Z,5.61
2017-11-07T08:30:26.853Z,5.64
2017-11-07T08:31:26.883Z,5.65
2017-11-07T08:32:26.523Z,5.74
2017-11-07T08:33:26.478Z,5.65
2017-11-07T08:34:27.141Z,5.57
2017-11-07T08:35:26.796Z,5.57
2017-11-07T08:36:26.772Z,5.65
2017-11-07T08:37:26.441Z,5.53
2017-11-07T08:38:26.428Z,5.64
2017-11-07T08:39:26.444Z,5.54
2017-11-07T08:40:26.731Z,5.45
2017-11-07T08:41:26.390Z,5.43
2017-11-07T08:42:26.735Z,5.58
2017-11-07T08:43:26.699Z,5.54
2017-11-07T08:44:26.693Z,5.45
2017-11-07T08:45:26.357Z,5.54
2017-11-07T08:46:26.651Z,5.61
2017-11-07T08:47:26.659Z,5.67
2017-11-07T08:48:26.357Z,5.75
2017-11-07T08:49:25.966Z,5.67
2017-11-07T08:50:26.290Z,5.74
2017-11-07T08:51:26.310Z,5.86
2017-11-07T08:52:26.595Z,5.85
2017-11-07T08:53:26.283Z,5.82
2017-11-07T08:54:26.229Z,5.89
2017-11-07T08:55:26.584Z,5.89
2017-11-07T08:56:26.218Z,5.99
2017-11-07T08:57:26.534Z,5.9
2017-11-07T08:58:26.536Z,6.09
2017-11-07T08:59:26.509Z,6.04
2017-11-07T09:00:26.166Z,6.06
2017-11-07T09:01:26.469Z,6.14
2017-11-07T09:02:26.465Z,6.17
2017-11-07T09:03:26.473Z,6.22
2017-11-07T09:04:26.107Z,6.25
2017-11-07T09:05:26.427Z,6.37
2017-11-07T09:06:26.661Z,6.4
2017-11-07T09:07:26.426Z,6.46
2017-11-07T09:08:26.428Z,6.54
2017-11-07T09:09:26.050Z,6.54
2017-11-07T09:10:26.399Z,6.62
2017-11-07T09:11:26.347Z,6.71
2017-11-07T09:12:26.338Z,6.67
2017-11-07T09:13:26.329Z,6.73
2017-11-07T09:14:26.371Z,6.76
2017-11-07T09:15:26.582Z,6.92
2017-11-07T09:16:26.029Z,6.84
2017-11-07T09:17:26.344Z,7.03
2017-11-07T09:18:26.304Z,6.99
2017-11-07T09:19:26.288Z,7.06
2017-11-07T09:20:26.256Z,7.12
2017-11-07T09:21:26.236Z,7.02
2017-11-07T09:22:26.235Z,7.12
2017-11-07T09:23:26.216Z,7.13
2017-11-07T09:24:25.885Z,7.09
2017-11-07T09:25:25.918Z,7.21
2017-11-07T09:26:26.201Z,7.2
2017-11-07T09:27:26.196Z,7.24
2017-11-07T09:28:26.158Z,7.31
2017-11-07T09:29:26.162Z,7.28
2017-11-07T09:30:26.136Z,7.4
2017-11-07T09:31:25.808Z,7.39
2017-11-07T09:32:26.119Z,7.46
2017-11-07T09:33:25.793Z,7.42
2017-11-07T09:34:26.132Z,7.43
2017-11-07T09:35:25.996Z,7.46
2017-11-07T09:36:26.076Z,7.6
2017-11-07T09:37:26.067Z,7.52
2017-11-07T09:38:26.053Z,7.52
2017-11-07T09:39:25.711Z,7.6
2017-11-07T09:40:26.128Z,7.63
2017-11-07T09:41:25.379Z,7.55
2017-11-07T09:42:26.015Z,7.48
2017-11-07T09:43:25.670Z,7.53
2017-11-07T09:44:25.978Z,7.67
2017-11-07T09:45:25.986Z,7.58
2017-11-07T09:46:25.979Z,7.57
2017-11-07T09:47:25.978Z,7.57
2017-11-07T09:48:25.954Z,7.52
2017-11-07T09:49:25.968Z,7.63
2017-11-07T09:50:25.989Z,7.58
2017-11-07T09:51:25.911Z,7.58
2017-11-07T09:52:25.574Z,7.55
2017-11-07T09:53:25.885Z,7.55
2017-11-07T09:54:25.910Z,7.58
2017-11-07T09:55:25.853Z,7.58
2017-11-07T09:56:25.852Z,7.55
2017-11-07T09:57:25.838Z,7.58
2017-11-07T09:58:25.820Z,7.57
2017-11-07T09:59:25.802Z,7.55
2017-11-07T10:00:25.803Z,7.6
2017-11-07T10:01:25.798Z,7.57
2017-11-07T10:02:25.815Z,7.55
2017-11-07T10:03:25.796Z,7.67
2017-11-07T10:04:25.444Z,7.69
2017-11-07T10:05:25.748Z,7.69
2017-11-07T10:06:25.771Z,7.71
2017-11-07T10:07:25.726Z,7.74
2017-11-07T10:08:26.013Z,7.82
2017-11-07T10:09:25.375Z,7.86
2017-11-07T10:10:25.691Z,7.92
2017-11-07T10:11:25.706Z,7.87
2017-11-07T10:12:25.675Z,7.85
2017-11-07T10:13:25.679Z,7.86
2017-11-07T10:14:25.673Z,7.95
2017-11-07T10:15:25.654Z,7.87
2017-11-07T10:16:25.624Z,7.87
2017-11-07T10:17:25.298Z,7.98
2017-11-07T10:18:25.609Z,7.98
2017-11-07T10:19:25.631Z,8.04
2017-11-07T10:20:25.293Z,8.02
2017-11-07T10:21:25.621Z,8.19
2017-11-07T10:22:25.598Z,8.33
2017-11-07T10:23:24.956Z,8.26
2017-11-07T10:24:25.602Z,8.33
2017-11-07T10:25:25.601Z,8.36
2017-11-07T10:26:25.825Z,8.43
2017-11-07T10:27:25.221Z,8.52
2017-11-07T10:28:25.561Z,8.61
2017-11-07T10:29:25.225Z,8.59
2017-11-07T10:30:25.212Z,8.68
2017-11-07T10:31:25.746Z,8.59
2017-11-07T10:32:25.507Z,8.65
2017-11-07T10:33:25.552Z,8.77
2017-11-07T10:34:25.518Z,8.71
2017-11-07T10:35:25.172Z,8.86
2017-11-07T10:36:25.510Z,8.92
2017-11-07T10:37:25.491Z,9.08
2017-11-07T10:38:25.126Z,9.13
2017-11-07T10:39:25.670Z,9.32
2017-11-07T10:40:25.413Z,9.38
2017-11-07T10:41:25.432Z,9.32
2017-11-07T10:42:25.404Z,9.35
2017-11-07T10:43:25.627Z,9.4
2017-11-07T10:44:25.049Z,9.42
2017-11-07T10:45:25.385Z,9.5
2017-11-07T10:46:25.447Z,9.47
2017-11-07T10:47:25.379Z,9.54
2017-11-07T10:48:25.082Z,9.65
2017-11-07T10:49:25.625Z,9.61
2017-11-07T10:50:25.328Z,9.65
2017-11-07T10:51:25.383Z,9.72
2017-11-07T10:52:24.678Z,9.79
2017-11-07T10:53:25.555Z,9.86
2017-11-07T10:54:25.345Z,9.99
2017-11-07T10:55:25.340Z,10.01
2017-11-07T10:56:25.312Z,10.11
2017-11-07T10:57:25.278Z,10.2
2017-11-07T10:58:25.467Z,10.3
2017-11-07T10:59:25.284Z,10.32
2017-11-07T11:00:25.238Z,10.36
2017-11-07T11:01:25.225Z,10.4
2017-11-07T11:02:25.420Z,10.34
2017-11-07T11:03:25.191Z,10.32
2017-11-07T11:04:25.194Z,10.17
2017-11-07T11:05:24.914Z,10.29
2017-11-07T11:06:25.302Z,10.15
2017-11-07T11:07:24.865Z,10.25
2017-11-07T11:08:24.555Z,10.22
2017-11-07T11:09:25.242Z,10.2
2017-11-07T11:10:25.071Z,10.27
2017-11-07T11:11:25.145Z,10.22
2017-11-07T11:12:24.840Z,10.29
2017-11-07T11:13:24.840Z,10.2
2017-11-07T11:14:25.182Z,10.18
2017-11-07T11:15:24.479Z,10.26
2017-11-07T11:16:25.126Z,10.26
2017-11-07T11:17:25.062Z,10.29
2017-11-07T11:18:24.804Z,10.34
2017-11-07T11:19:25.113Z,10.47
2017-11-07T11:20:24.448Z,10.4
2017-11-07T11:21:25.117Z,10.59
2017-11-07T11:22:24.953Z,10.61
2017-11-07T11:23:25.070Z,10.59
2017-11-07T11:24:24.696Z,10.59
2017-11-07T11:25:25.071Z,10.53
2017-11-07T11:26:25.042Z,10.51
2017-11-07T11:27:24.694Z,10.48
2017-11-07T11:28:24.680Z,10.44
2017-11-07T11:29:24.944Z,10.33
2017-11-07T11:30:24.672Z,10.36
2017-11-07T11:31:24.944Z,10.38
2017-11-07T11:32:24.632Z,10.42
2017-11-07T11:33:24.959Z,10.41
2017-11-07T11:34:24.703Z,10.53
2017-11-07T11:35:24.904Z,10.55
2017-11-07T11:36:24.916Z,10.59
2017-11-07T11:37:24.941Z,10.53
2017-11-07T11:38:24.863Z,10.56
2017-11-07T11:39:24.866Z,10.52
2017-11-07T11:40:24.853Z,10.56
2017-11-07T11:41:25.115Z,10.56
2017-11-07T11:42:24.852Z,10.55
2017-11-07T11:43:24.822Z,10.56
2017-11-07T11:44:24.864Z,10.56
2017-11-07T11:45:24.816Z,10.6
2017-11-07T11:46:24.824Z,10.71
2017-11-07T11:47:24.801Z,10.7
2017-11-07T11:48:24.463Z,10.79
2017-11-07T11:49:24.786Z,10.78
2017-11-07T11:50:24.766Z,10.74
2017-11-07T11:51:24.437Z,10.73
2017-11-07T11:52:24.755Z,10.67
2017-11-07T11:53:24.776Z,10.6
2017-11-07T11:54:24.804Z,10.45
2017-11-07T11:55:24.416Z,10.38
2017-11-07T11:56:24.399Z,10.44
2017-11-07T11:57:24.704Z,10.42
2017-11-07T11:58:24.379Z,10.36
2017-11-07T11:59:24.387Z,10.38
2017-11-07T12:00:24.361Z,10.38
2017-11-07T12:01:24.373Z,10.41
2017-11-07T12:02:24.669Z,10.55
2017-11-07T12:03:24.333Z,10.6
2017-11-07T12:04:24.657Z,10.61
2017-11-07T12:05:24.322Z,10.56
2017-11-07T12:06:24.313Z,10.64
2017-11-07T12:07:24.327Z,10.66
2017-11-07T12:08:24.306Z,10.66
2017-11-07T12:09:24.643Z,10.73
2017-11-07T12:10:24.293Z,10.78
2017-11-07T12:11:24.602Z,10.78
2017-11-07T12:12:24.861Z,10.78
2017-11-07T12:13:24.601Z,10.71
2017-11-07T12:14:24.606Z,10.76
2017-11-07T12:15:24.575Z,10.76
2017-11-07T12:16:24.568Z,10.74
2017-11-07T12:17:24.546Z,10.81
2017-11-07T12:18:24.217Z,10.78
2017-11-07T12:19:24.540Z,10.79
2017-11-07T12:20:24.203Z,10.71
2017-11-07T12:21:24.542Z,10.66
2017-11-07T12:22:24.514Z,10.74
2017-11-07T12:23:24.533Z,10.73
2017-11-07T12:24:24.518Z,10.81
2017-11-07T12:25:24.538Z,10.79
2017-11-07T12:26:24.192Z,10.78
2017-11-07T12:27:24.485Z,10.73
2017-11-07T12:28:24.457Z,10.68
2017-11-07T12:29:24.491Z,10.64
2017-11-07T12:30:24.495Z,10.64
2017-11-07T12:31:24.461Z,10.59
2017-11-07T12:32:24.438Z,10.66
2017-11-07T12:33:24.478Z,10.71
2017-11-07T12:34:24.440Z,10.78
2017-11-07T12:35:24.419Z,10.79
2017-11-07T12:36:24.439Z,10.73
2017-11-07T12:37:24.442Z,10.71
2017-11-07T12:38:24.091Z,10.68
2017-11-07T12:39:24.373Z,10.64
2017-11-07T12:40:24.035Z,10.73
2017-11-07T12:41:24.369Z,10.59
2017-11-07T12:42:24.234Z,10.48
2017-11-07T12:43:24.595Z,10.53
2017-11-07T12:44:24.026Z,10.44
2017-11-07T12:45:24.339Z,10.47
2017-11-07T12:46:24.315Z,10.41
2017-11-07T12:47:24.319Z,10.38
2017-11-07T12:48:24.303Z,10.36
2017-11-07T12:49:24.292Z,10.4
2017-11-07T12:50:24.282Z,10.33
2017-11-07T12:51:24.273Z,10.4
2017-11-07T12:52:24.281Z,10.4
2017-11-07T12:53:23.959Z,10.41
2017-11-07T12:54:24.245Z,10.33
2017-11-07T12:55:24.235Z,10.38
2017-11-07T12:56:24.240Z,10.41
2017-11-07T12:57:23.903Z,10.44
2017-11-07T12:58:24.226Z,10.52
2017-11-07T12:59:24.408Z,10.59
2017-11-07T13:00:23.874Z,10.59
2017-11-07T13:01:24.177Z,10.66
2017-11-07T13:02:24.201Z,10.7
2017-11-07T13:03:24.215Z,10.68
2017-11-07T13:04:23.911Z,10.61
2017-11-07T13:05:24.213Z,10.53
2017-11-07T13:06:23.839Z,10.6
2017-11-07T13:07:24.409Z,10.55
2017-11-07T13:08:24.232Z,10.53
2017-11-07T13:09:24.401Z,10.56
2017-11-07T13:10:24.166Z,10.55
2017-11-07T13:11:24.130Z,10.68
2017-11-07T13:12:24.160Z,10.64
2017-11-07T13:13:24.091Z,10.64
2017-11-07T13:14:24.087Z,10.6
2017-11-07T13:15:24.075Z,10.64
2017-11-07T13:16:24.115Z,10.59
2017-11-07T13:17:24.095Z,10.52